Terminal Aerodrome Forecast
Issued by NWS Binghamton, NY

Home | Current Version | Previous Version | Text Only | Print | Product List | Glossary On
Versions: 1 2 3 4 5 6 7 8 9 10 11 12 13
145
FTUS41 KBGM 231740
TAFBGM
TAF
KBGM 231740Z 2318/2418 17015G22KT P6SM BKN035 OVC200
     FM240400 16020G30KT P6SM BKN025 OVC040
     FM240700 17020G30KT 4SM -SHRA BR OVC015
     FM241200 18010KT 4SM -SHRA BR OVC015
     FM241500 19010KT P6SM -SHRA OVC025=

USA.gov is the U.S. government's official web portal to all federal, state and local government web resources and services.